createdAt,value
2022-08-16T00:00:22.016Z,1004.47
2022-08-16T00:02:13.447Z,1004.47
2022-08-16T00:04:05.635Z,1004.51
2022-08-16T00:06:02.676Z,1004.51
2022-08-16T00:08:05.253Z,1004.46
2022-08-16T00:10:01.880Z,1004.46
2022-08-16T00:12:02.467Z,1004.41
2022-08-16T00:14:09.031Z,1004.41
2022-08-16T00:17:18.896Z,1004.54
2022-08-16T00:18:02.302Z,1004.54
2022-08-16T00:20:04.155Z,1004.6
2022-08-16T00:22:13.723Z,1004.6
2022-08-16T00:24:05.258Z,1004.52
2022-08-16T00:26:45.323Z,1004.52
2022-08-16T00:28:02.103Z,1004.64
2022-08-16T00:30:28.683Z,1004.64
2022-08-16T00:32:06.642Z,1004.63
2022-08-16T00:34:04.762Z,1004.63
2022-08-16T00:36:02.063Z,1004.56
2022-08-16T00:38:43.661Z,1004.56
2022-08-16T00:40:02.686Z,1004.58
2022-08-16T00:42:02.798Z,1004.58
2022-08-16T00:44:02.567Z,1004.49
2022-08-16T00:46:35.479Z,1004.49
2022-08-16T00:48:30.919Z,1004.55
2022-08-16T00:50:02.562Z,1004.55
2022-08-16T00:52:02.353Z,1004.7
2022-08-16T00:54:02.058Z,1004.7
2022-08-16T00:56:05.835Z,1004.68
2022-08-16T00:58:01.907Z,1004.68
2022-08-16T01:00:05.703Z,1004.57
2022-08-16T01:02:33.119Z,1004.57
2022-08-16T01:04:05.656Z,1004.56
2022-08-16T01:07:01.440Z,1004.56
2022-08-16T01:08:36.779Z,1004.59
2022-08-16T01:10:01.960Z,1004.59
2022-08-16T01:12:02.336Z,1004.58
2022-08-16T01:14:02.397Z,1004.58
2022-08-16T01:16:03.359Z,1004.47
2022-08-16T01:18:01.629Z,1004.47
2022-08-16T01:20:30.120Z,1004.37
2022-08-16T01:22:52.268Z,1004.37
2022-08-16T01:24:02.638Z,1004.49
2022-08-16T01:26:35.847Z,1004.49
2022-08-16T01:28:02.369Z,1004.5
2022-08-16T01:30:03.328Z,1004.5
2022-08-16T01:32:02.138Z,1004.37
2022-08-16T01:34:02.259Z,1004.37
2022-08-16T01:36:12.941Z,1004.46
2022-08-16T01:38:05.182Z,1004.46
2022-08-16T01:40:07.802Z,1004.41
2022-08-16T01:42:04.007Z,1004.41
2022-08-16T01:44:03.433Z,1004.52
2022-08-16T01:46:40.635Z,1004.52
2022-08-16T01:48:20.512Z,1004.56
2022-08-16T01:51:16.674Z,1004.56
2022-08-16T01:52:04.639Z,1004.53
2022-08-16T01:54:02.561Z,1004.53
2022-08-16T01:56:03.357Z,1004.72
2022-08-16T01:58:01.643Z,1004.72
2022-08-16T02:00:19.470Z,1004.58
2022-08-16T02:02:03.053Z,1004.58
2022-08-16T02:04:11.701Z,1004.57
2022-08-16T02:06:01.671Z,1004.57
2022-08-16T02:08:02.398Z,1004.57
2022-08-16T02:10:03.231Z,1004.57
2022-08-16T02:13:00.796Z,1004.55
2022-08-16T02:14:04.001Z,1004.55
2022-08-16T02:16:02.098Z,1004.47
2022-08-16T02:18:02.254Z,1004.47
2022-08-16T02:20:11.966Z,1004.46
2022-08-16T02:22:35.817Z,1004.46
2022-08-16T02:24:02.156Z,1004.4
2022-08-16T02:26:02.526Z,1004.4
2022-08-16T02:28:01.760Z,1004.46
2022-08-16T02:30:06.079Z,1004.46
2022-08-16T02:32:50.365Z,1004.47
2022-08-16T02:34:06.749Z,1004.47
2022-08-16T02:36:03.245Z,1004.35
2022-08-16T02:38:09.346Z,1004.37
2022-08-16T02:40:03.067Z,1004.37
2022-08-16T02:42:01.731Z,1004.23
2022-08-16T02:44:02.336Z,1004.23
2022-08-16T02:46:07.889Z,1004.36
2022-08-16T02:48:31.014Z,1004.36
2022-08-16T02:51:10.495Z,1004.27
2022-08-16T02:52:02.027Z,1004.27
2022-08-16T02:54:02.077Z,1004.34
2022-08-16T02:56:01.848Z,1004.34
2022-08-16T02:58:02.488Z,1004.18
2022-08-16T03:00:35.352Z,1004.18
2022-08-16T03:02:09.235Z,1004.39
2022-08-16T03:04:52.136Z,1004.39
2022-08-16T03:06:02.155Z,1004.33
2022-08-16T03:08:01.741Z,1004.33
2022-08-16T03:10:02.077Z,1004.35
2022-08-16T03:12:02.879Z,1004.35
2022-08-16T03:14:08.310Z,1004.44
2022-08-16T03:16:02.197Z,1004.44
2022-08-16T03:18:02.480Z,1004.43
2022-08-16T03:20:03.255Z,1004.43
2022-08-16T03:22:02.035Z,1004.53
2022-08-16T03:24:02.463Z,1004.53
2022-08-16T03:26:02.614Z,1004.43
2022-08-16T03:28:07.816Z,1004.43
2022-08-16T03:30:02.267Z,1004.33
2022-08-16T03:32:02.171Z,1004.33
2022-08-16T03:34:02.359Z,1004.45
2022-08-16T03:36:32.820Z,1004.45
2022-08-16T03:38:04.399Z,1004.42
2022-08-16T03:40:03.300Z,1004.42
2022-08-16T03:42:02.884Z,1004.45
2022-08-16T03:44:01.891Z,1004.45
2022-08-16T03:46:04.656Z,1004.48
2022-08-16T03:48:07.311Z,1004.48
2022-08-16T03:50:03.224Z,1004.35
2022-08-16T03:52:02.183Z,1004.35
2022-08-16T03:54:02.057Z,1004.43
2022-08-16T03:56:01.594Z,1004.43
2022-08-16T03:58:02.505Z,1004.38
2022-08-16T04:00:06.051Z,1004.38
2022-08-16T04:02:10.650Z,1004.44
2022-08-16T04:04:04.029Z,1004.44
2022-08-16T04:06:02.628Z,1004.4
2022-08-16T04:08:24.587Z,1004.4
2022-08-16T04:10:38.119Z,1004.5
2022-08-16T04:12:02.366Z,1004.5
2022-08-16T04:14:33.701Z,1004.55
2022-08-16T04:16:06.764Z,1004.55
2022-08-16T04:18:02.411Z,1004.67
2022-08-16T04:20:06.730Z,1004.67
2022-08-16T04:22:09.105Z,1004.65
2022-08-16T04:24:03.134Z,1004.65
2022-08-16T04:26:02.533Z,1004.83
2022-08-16T04:29:16.550Z,1004.83
2022-08-16T04:30:03.950Z,1004.66
2022-08-16T04:32:02.513Z,1004.66
2022-08-16T04:34:01.957Z,1004.76
2022-08-16T04:36:04.996Z,1004.76
2022-08-16T04:38:21.688Z,1004.79
2022-08-16T04:40:06.118Z,1004.79
2022-08-16T04:42:11.715Z,1004.88
2022-08-16T04:44:54.591Z,1004.88
2022-08-16T04:46:03.549Z,1004.84
2022-08-16T04:48:01.963Z,1004.84
2022-08-16T04:50:02.282Z,1004.75
2022-08-16T04:52:02.489Z,1004.75
2022-08-16T04:54:03.696Z,1004.79
2022-08-16T04:56:01.993Z,1004.79
2022-08-16T04:58:46.852Z,1004.81
2022-08-16T05:00:33.776Z,1004.81
2022-08-16T05:02:42.891Z,1004.84
2022-08-16T05:04:02.162Z,1004.84
2022-08-16T05:06:09.408Z,1004.89
2022-08-16T05:08:30.979Z,1004.89
2022-08-16T05:10:22.766Z,1004.85
2022-08-16T05:12:02.973Z,1004.85
2022-08-16T05:14:07.543Z,1004.97
2022-08-16T05:16:02.192Z,1004.97
2022-08-16T05:18:04.046Z,1004.98
2022-08-16T05:20:54.323Z,1004.98
2022-08-16T05:22:02.206Z,1004.88
2022-08-16T05:24:07.118Z,1004.88
2022-08-16T05:26:01.967Z,1004.97
2022-08-16T05:28:04.256Z,1004.97
2022-08-16T05:30:37.197Z,1005.04
2022-08-16T05:32:02.507Z,1005.04
2022-08-16T05:34:04.582Z,1005.14
2022-08-16T05:36:04.253Z,1005.14
2022-08-16T05:38:01.712Z,1005.04
2022-08-16T05:40:06.683Z,1005.04
2022-08-16T05:42:03.260Z,1005.17
2022-08-16T05:44:25.091Z,1005.17
2022-08-16T05:46:30.928Z,1005.18
2022-08-16T05:48:01.974Z,1005.18
2022-08-16T05:50:02.540Z,1005.21
2022-08-16T05:52:02.369Z,1005.21
2022-08-16T05:54:03.831Z,1005.39
2022-08-16T05:56:04.619Z,1005.39
2022-08-16T05:58:02.365Z,1005.23
2022-08-16T06:00:09.868Z,1005.32
2022-08-16T06:02:06.283Z,1005.32
2022-08-16T06:04:01.911Z,1005.31
2022-08-16T06:06:03.916Z,1005.31
2022-08-16T06:08:02.850Z,1005.3
2022-08-16T06:10:02.501Z,1005.3
2022-08-16T06:12:02.318Z,1005.33
2022-08-16T06:14:02.107Z,1005.33
2022-08-16T06:16:01.850Z,1005.32
2022-08-16T06:18:01.669Z,1005.32
2022-08-16T06:20:01.805Z,1005.3
2022-08-16T06:22:02.450Z,1005.3
2022-08-16T06:24:55.982Z,1005.49
2022-08-16T06:26:02.100Z,1005.49
2022-08-16T06:28:09.513Z,1005.5
2022-08-16T06:30:03.531Z,1005.5
2022-08-16T06:32:04.588Z,1005.52
2022-08-16T06:34:57.427Z,1005.52
2022-08-16T06:36:01.994Z,1005.54
2022-08-16T06:38:03.123Z,1005.54
2022-08-16T06:40:03.774Z,1005.54
2022-08-16T06:42:01.783Z,1005.54
2022-08-16T06:44:01.823Z,1005.53
2022-08-16T06:46:04.228Z,1005.53
2022-08-16T06:48:02.360Z,1005.4
2022-08-16T06:50:05.872Z,1005.4
2022-08-16T06:52:03.700Z,1005.41
2022-08-16T06:54:02.503Z,1005.41
2022-08-16T06:56:02.807Z,1005.55
2022-08-16T06:58:21.626Z,1005.55
2022-08-16T07:00:24.179Z,1005.5
2022-08-16T07:02:02.271Z,1005.5
2022-08-16T07:04:12.016Z,1005.59
2022-08-16T07:06:03.637Z,1005.59
2022-08-16T07:08:01.753Z,1005.63
2022-08-16T07:10:09.575Z,1005.63
2022-08-16T07:12:05.980Z,1005.58
2022-08-16T07:14:27.188Z,1005.58
2022-08-16T07:16:02.434Z,1005.5
2022-08-16T07:18:04.541Z,1005.5
2022-08-16T07:20:48.429Z,1005.7
2022-08-16T07:22:04.027Z,1005.7
2022-08-16T07:24:06.511Z,1005.68
2022-08-16T07:26:02.152Z,1005.68
2022-08-16T07:28:04.417Z,1005.67
2022-08-16T07:30:46.447Z,1005.67
2022-08-16T07:32:02.866Z,1005.78
2022-08-16T07:34:01.783Z,1005.78
2022-08-16T07:36:01.604Z,1005.74
2022-08-16T07:38:03.792Z,1005.74
2022-08-16T07:40:12.823Z,1005.77
2022-08-16T07:42:07.195Z,1005.77
2022-08-16T07:44:01.863Z,1005.86
2022-08-16T07:46:02.597Z,1005.86
2022-08-16T07:48:12.897Z,1005.89
2022-08-16T07:50:07.976Z,1005.89
2022-08-16T07:52:20.360Z,1005.96
2022-08-16T07:54:20.549Z,1005.96
2022-08-16T07:56:04.717Z,1006
2022-08-16T07:58:03.813Z,1006
2022-08-16T08:00:04.923Z,1005.97
2022-08-16T08:02:02.803Z,1005.97
2022-08-16T08:04:03.610Z,1006.04
2022-08-16T08:06:02.443Z,1006.04
2022-08-16T08:08:50.670Z,1005.92
2022-08-16T08:10:04.816Z,1005.92
2022-08-16T08:12:05.802Z,1006.02
2022-08-16T08:14:06.653Z,1006.02
2022-08-16T08:16:01.814Z,1006.05
2022-08-16T08:18:31.186Z,1006.05
2022-08-16T08:20:01.887Z,1006.08
2022-08-16T08:22:06.578Z,1006.08
2022-08-16T08:24:01.848Z,1006.13
2022-08-16T08:26:02.296Z,1006.13
2022-08-16T08:28:01.776Z,1006.08
2022-08-16T08:31:02.758Z,1006.08
2022-08-16T08:32:02.372Z,1006.14
2022-08-16T08:34:05.137Z,1006.14
2022-08-16T08:36:02.103Z,1006.18
2022-08-16T08:38:02.971Z,1006.18
2022-08-16T08:40:03.095Z,1006.11
2022-08-16T08:42:03.902Z,1006.11
2022-08-16T08:44:30.987Z,1006.12
2022-08-16T08:46:21.534Z,1006.12
2022-08-16T08:48:06.170Z,1006.21
2022-08-16T08:50:02.257Z,1006.21
2022-08-16T08:52:08.396Z,1006.33
2022-08-16T08:54:09.272Z,1006.33
2022-08-16T08:56:25.665Z,1006.47
2022-08-16T08:58:02.801Z,1006.47
2022-08-16T09:00:14.186Z,1006.67
2022-08-16T09:02:04.250Z,1006.67
2022-08-16T09:04:04.866Z,1006.46
2022-08-16T09:06:02.873Z,1006.46
2022-08-16T09:08:06.521Z,1006.52
2022-08-16T09:10:21.423Z,1006.52
2022-08-16T09:12:07.375Z,1006.63
2022-08-16T09:14:01.695Z,1006.63
2022-08-16T09:16:02.751Z,1006.7
2022-08-16T09:18:35.634Z,1006.7
2022-08-16T09:20:05.211Z,1006.69
2022-08-16T09:22:01.698Z,1006.69
2022-08-16T09:24:02.138Z,1006.68
2022-08-16T09:26:46.673Z,1006.6
2022-08-16T09:28:10.361Z,1006.6
2022-08-16T09:30:44.336Z,1006.66
2022-08-16T09:32:02.050Z,1006.66
2022-08-16T09:34:02.990Z,1006.56
2022-08-16T09:36:03.368Z,1006.56
2022-08-16T09:38:01.907Z,1006.73
2022-08-16T09:40:02.349Z,1006.73
2022-08-16T09:42:02.190Z,1006.77
2022-08-16T09:45:17.801Z,1006.77
2022-08-16T09:46:02.894Z,1006.76
2022-08-16T09:48:02.527Z,1006.76
2022-08-16T09:50:01.797Z,1006.74
2022-08-16T09:52:02.147Z,1006.74
2022-08-16T09:54:01.766Z,1006.81
2022-08-16T09:56:02.412Z,1006.81
2022-08-16T09:58:01.663Z,1006.82
2022-08-16T10:00:46.055Z,1006.82
2022-08-16T10:02:28.032Z,1006.73
2022-08-16T10:04:09.873Z,1006.73
2022-08-16T10:06:02.103Z,1006.82
2022-08-16T10:08:27.454Z,1006.82
2022-08-16T10:10:01.990Z,1006.82
2022-08-16T10:12:20.127Z,1006.82
2022-08-16T10:14:01.631Z,1006.79
2022-08-16T10:16:02.426Z,1006.79
2022-08-16T10:19:06.748Z,1006.84
2022-08-16T10:20:05.225Z,1006.84
2022-08-16T10:22:05.733Z,1006.83
2022-08-16T10:24:02.733Z,1006.83
2022-08-16T10:27:28.884Z,1006.93
2022-08-16T10:28:31.874Z,1006.93
2022-08-16T10:30:28.510Z,1006.97
2022-08-16T10:32:03.822Z,1006.97
2022-08-16T10:34:01.637Z,1006.99
2022-08-16T10:36:04.543Z,1006.99
2022-08-16T10:38:09.480Z,1007.01
2022-08-16T10:40:02.089Z,1007.01
2022-08-16T10:42:02.388Z,1007.04
2022-08-16T10:44:02.310Z,1007.04
2022-08-16T10:46:01.888Z,1007.08
2022-08-16T10:48:04.216Z,1007.08
2022-08-16T10:50:01.816Z,1007.12
2022-08-16T10:52:20.211Z,1007.12
2022-08-16T10:54:01.628Z,1007.15
2022-08-16T10:56:02.935Z,1007.15
2022-08-16T10:58:12.126Z,1007.18
2022-08-16T11:00:23.077Z,1007.18
2022-08-16T11:02:58.819Z,1007.12
2022-08-16T11:05:06.750Z,1007.12
2022-08-16T11:06:07.520Z,1007.2
2022-08-16T11:08:07.229Z,1007.2
2022-08-16T11:10:59.837Z,1007.24
2022-08-16T11:12:15.101Z,1007.24
2022-08-16T11:14:11.917Z,1007.29
2022-08-16T11:16:27.517Z,1007.29
2022-08-16T11:19:03.839Z,1007.45
2022-08-16T11:20:49.171Z,1007.45
2022-08-16T11:22:48.396Z,1007.33
2022-08-16T11:24:02.870Z,1007.33
2022-08-16T11:26:24.672Z,1007.35
2022-08-16T11:28:03.502Z,1007.35
2022-08-16T11:30:01.680Z,1007.37
2022-08-16T11:32:03.076Z,1007.37
2022-08-16T11:34:02.530Z,1007.44
2022-08-16T11:36:29.124Z,1007.44
2022-08-16T11:38:55.550Z,1007.4
2022-08-16T11:40:03.314Z,1007.4
2022-08-16T11:42:02.814Z,1007.46
2022-08-16T11:44:03.270Z,1007.46
2022-08-16T11:46:46.877Z,1007.52
2022-08-16T11:48:02.343Z,1007.52
2022-08-16T11:50:02.259Z,1007.61
2022-08-16T11:52:03.325Z,1007.61
2022-08-16T11:54:05.379Z,1007.62
2022-08-16T11:56:02.617Z,1007.62
2022-08-16T11:58:03.757Z,1007.6
2022-08-16T12:00:07.427Z,1007.6
2022-08-16T12:02:33.274Z,1007.64
2022-08-16T12:04:02.460Z,1007.64
2022-08-16T12:06:01.590Z,1007.66
2022-08-16T12:08:05.688Z,1007.66
2022-08-16T12:10:02.472Z,1007.67
2022-08-16T12:12:03.564Z,1007.67
2022-08-16T12:14:05.118Z,1007.69
2022-08-16T12:16:02.495Z,1007.69
2022-08-16T12:18:01.922Z,1007.75
2022-08-16T12:20:05.159Z,1007.75
2022-08-16T12:22:19.987Z,1007.98
2022-08-16T12:24:03.691Z,1007.98
2022-08-16T12:26:10.675Z,1007.91
2022-08-16T12:28:03.155Z,1007.91
2022-08-16T12:30:02.510Z,1007.94
2022-08-16T12:32:54.723Z,1007.94
2022-08-16T12:34:03.534Z,1007.94
2022-08-16T12:36:03.129Z,1007.94
2022-08-16T12:38:48.057Z,1007.95
2022-08-16T12:40:02.771Z,1007.95
2022-08-16T12:42:02.014Z,1007.97
2022-08-16T12:44:01.833Z,1007.97
2022-08-16T12:46:02.526Z,1007.97
2022-08-16T12:48:35.194Z,1007.97
2022-08-16T12:50:02.642Z,1007.99
2022-08-16T12:52:02.961Z,1007.99
2022-08-16T12:54:03.541Z,1008.09
2022-08-16T12:56:04.579Z,1008.07
2022-08-16T12:58:02.180Z,1008.07
2022-08-16T13:00:05.343Z,1008.15
2022-08-16T13:02:06.225Z,1008.15
2022-08-16T13:04:24.735Z,1008.1
2022-08-16T13:06:03.062Z,1008.1
2022-08-16T13:08:01.897Z,1008.15
2022-08-16T13:10:21.097Z,1008.15
2022-08-16T13:12:04.192Z,1008.08
2022-08-16T13:14:05.442Z,1008.08
2022-08-16T13:16:20.819Z,1008.06
2022-08-16T13:18:27.459Z,1008.06
2022-08-16T13:20:11.255Z,1008.04
2022-08-16T13:22:02.073Z,1008.04
2022-08-16T13:24:04.447Z,1008.15
2022-08-16T13:26:02.142Z,1008.15
2022-08-16T13:28:04.907Z,1008.01
2022-08-16T13:30:35.593Z,1008.01
2022-08-16T13:32:01.604Z,1008.21
2022-08-16T13:34:09.702Z,1008.21
2022-08-16T13:36:02.077Z,1008.22
2022-08-16T13:38:02.133Z,1008.22
2022-08-16T13:40:02.822Z,1008.2
2022-08-16T13:42:02.309Z,1008.2
2022-08-16T13:44:09.693Z,1008.18
2022-08-16T13:46:05.094Z,1008.18
2022-08-16T13:48:04.647Z,1008.27
2022-08-16T13:50:02.091Z,1008.27
2022-08-16T13:52:03.019Z,1008.27
2022-08-16T13:54:04.287Z,1008.27
2022-08-16T13:56:03.381Z,1008.14
2022-08-16T13:58:55.631Z,1008.14
2022-08-16T14:00:05.061Z,1008.08
2022-08-16T14:02:03.037Z,1008.08
2022-08-16T14:04:03.527Z,1008.27
2022-08-16T14:06:01.987Z,1008.27
2022-08-16T14:08:03.490Z,1008.14
2022-08-16T14:10:03.436Z,1008.14
2022-08-16T14:12:18.303Z,1008.15
2022-08-16T14:14:06.218Z,1008.15
2022-08-16T14:16:02.222Z,1008.19
2022-08-16T14:18:20.061Z,1008.19
2022-08-16T14:20:02.660Z,1008.12
2022-08-16T14:22:31.139Z,1008.12
2022-08-16T14:24:22.496Z,1008.14
2022-08-16T14:26:01.649Z,1008.14
2022-08-16T14:28:02.477Z,1008.2
2022-08-16T14:30:02.396Z,1008.2
2022-08-16T14:32:05.138Z,1008.08
2022-08-16T14:34:02.073Z,1008.08
2022-08-16T14:36:01.557Z,1008.07
2022-08-16T14:38:03.013Z,1008.07
2022-08-16T14:40:04.016Z,1008.07
2022-08-16T14:42:04.055Z,1008.07
2022-08-16T14:44:02.729Z,1008.14
2022-08-16T14:46:01.995Z,1008.14
2022-08-16T14:48:01.762Z,1008.21
2022-08-16T14:50:01.998Z,1008.21
2022-08-16T14:52:02.410Z,1008.18
2022-08-16T14:54:02.226Z,1008.18
2022-08-16T14:56:02.237Z,1008.3
2022-08-16T14:58:01.643Z,1008.3
2022-08-16T15:00:11.577Z,1008.39
2022-08-16T15:02:01.724Z,1008.39
2022-08-16T15:04:02.142Z,1008.36
2022-08-16T15:06:02.341Z,1008.36
2022-08-16T15:08:01.629Z,1008.26
2022-08-16T15:10:03.873Z,1008.26
2022-08-16T15:12:02.221Z,1008.37
2022-08-16T15:14:01.963Z,1008.37
2022-08-16T15:16:03.951Z,1008.44
2022-08-16T15:18:02.747Z,1008.44
2022-08-16T15:20:02.383Z,1008.32
2022-08-16T15:22:05.075Z,1008.32
2022-08-16T15:24:05.826Z,1008.44
2022-08-16T15:26:04.464Z,1008.44
2022-08-16T15:28:02.563Z,1008.34
2022-08-16T15:30:59.611Z,1008.34
2022-08-16T15:32:02.358Z,1008.41
2022-08-16T15:34:01.605Z,1008.41
2022-08-16T15:36:01.643Z,1008.56
2022-08-16T15:38:09.504Z,1008.56
2022-08-16T15:40:03.093Z,1008.53
2022-08-16T15:42:01.756Z,1008.53
2022-08-16T15:44:11.527Z,1008.52
2022-08-16T15:46:04.057Z,1008.52
2022-08-16T15:48:05.821Z,1008.42
2022-08-16T15:50:04.768Z,1008.42
2022-08-16T15:52:03.422Z,1008.33
2022-08-16T15:54:32.677Z,1008.33
2022-08-16T15:56:05.639Z,1008.42
2022-08-16T15:58:38.991Z,1008.42
2022-08-16T16:00:15.836Z,1008.4
2022-08-16T16:02:01.843Z,1008.4
2022-08-16T16:04:03.554Z,1008.41
2022-08-16T16:06:02.483Z,1008.41
2022-08-16T16:08:16.063Z,1008.5
2022-08-16T16:10:02.520Z,1008.5
2022-08-16T16:12:01.983Z,1008.36
2022-08-16T16:14:07.439Z,1008.36
2022-08-16T16:16:02.603Z,1008.43
2022-08-16T16:18:10.355Z,1008.5
2022-08-16T16:20:01.673Z,1008.5
2022-08-16T16:22:01.944Z,1008.52
2022-08-16T16:24:30.839Z,1008.52
2022-08-16T16:26:06.153Z,1008.59
2022-08-16T16:28:02.649Z,1008.59
2022-08-16T16:30:02.593Z,1008.49
2022-08-16T16:32:02.229Z,1008.49
2022-08-16T16:34:02.375Z,1008.65
2022-08-16T16:36:01.699Z,1008.65
2022-08-16T16:38:08.458Z,1008.62
2022-08-16T16:40:02.860Z,1008.62
2022-08-16T16:42:04.434Z,1008.72
2022-08-16T16:44:08.195Z,1008.72
2022-08-16T16:46:40.200Z,1008.69
2022-08-16T16:48:13.239Z,1008.69
2022-08-16T16:50:02.768Z,1008.62
2022-08-16T16:52:07.723Z,1008.62
2022-08-16T16:54:02.323Z,1008.76
2022-08-16T16:56:19.601Z,1008.76
2022-08-16T16:58:03.701Z,1008.69
2022-08-16T17:00:38.888Z,1008.69
2022-08-16T17:02:49.604Z,1008.59
2022-08-16T17:04:19.556Z,1008.59
2022-08-16T17:06:10.644Z,1008.68
2022-08-16T17:08:02.536Z,1008.68
2022-08-16T17:10:02.120Z,1008.58
2022-08-16T17:12:05.794Z,1008.58
2022-08-16T17:14:02.504Z,1008.65
2022-08-16T17:16:02.436Z,1008.65
2022-08-16T17:19:18.367Z,1008.52
2022-08-16T17:20:01.875Z,1008.52
2022-08-16T17:22:05.290Z,1008.44
2022-08-16T17:24:21.322Z,1008.44
2022-08-16T17:26:10.717Z,1008.46
2022-08-16T17:29:02.574Z,1008.46
2022-08-16T17:30:02.330Z,1008.44
2022-08-16T17:32:48.911Z,1008.44
2022-08-16T17:34:30.879Z,1008.59
2022-08-16T17:36:02.252Z,1008.59
2022-08-16T17:38:02.154Z,1008.47
2022-08-16T17:40:52.018Z,1008.47
2022-08-16T17:42:02.502Z,1008.44
2022-08-16T17:44:02.450Z,1008.44
2022-08-16T17:46:02.331Z,1008.48
2022-08-16T17:48:02.129Z,1008.48
2022-08-16T17:50:02.714Z,1008.59
2022-08-16T17:52:02.266Z,1008.59
2022-08-16T17:54:02.473Z,1008.51
2022-08-16T17:56:02.502Z,1008.51
2022-08-16T17:58:24.347Z,1008.5
2022-08-16T18:00:08.419Z,1008.5
2022-08-16T18:02:44.681Z,1008.32
2022-08-16T18:04:10.207Z,1008.32
2022-08-16T18:06:02.161Z,1008.38
2022-08-16T18:08:01.756Z,1008.38
2022-08-16T18:10:01.757Z,1008.47
2022-08-16T18:12:02.120Z,1008.47
2022-08-16T18:14:02.047Z,1008.37
2022-08-16T18:16:02.325Z,1008.37
2022-08-16T18:18:02.301Z,1008.26
2022-08-16T18:20:02.243Z,1008.26
2022-08-16T18:22:02.076Z,1008.18
2022-08-16T18:24:02.059Z,1008.18
2022-08-16T18:26:01.762Z,1008.23
2022-08-16T18:28:01.906Z,1008.23
2022-08-16T18:30:02.401Z,1008.13
2022-08-16T18:32:01.689Z,1008.13
2022-08-16T18:34:01.832Z,1008
2022-08-16T18:36:02.391Z,1008
2022-08-16T18:38:02.245Z,1008.14
2022-08-16T18:40:02.858Z,1008.14
2022-08-16T18:42:02.500Z,1008.17
2022-08-16T18:44:31.147Z,1008.17
2022-08-16T18:46:02.142Z,1008.2
2022-08-16T18:48:02.342Z,1008.2
2022-08-16T18:50:01.996Z,1008.24
2022-08-16T18:52:02.489Z,1008.24
2022-08-16T18:54:01.989Z,1008.34
2022-08-16T18:56:01.806Z,1008.34
2022-08-16T18:58:01.860Z,1008.44
2022-08-16T19:00:05.605Z,1008.44
2022-08-16T19:02:05.823Z,1008.54
2022-08-16T19:04:02.168Z,1008.54
2022-08-16T19:06:02.408Z,1008.48
2022-08-16T19:08:01.817Z,1008.48
2022-08-16T19:10:02.354Z,1008.46
2022-08-16T19:12:01.713Z,1008.46
2022-08-16T19:14:02.339Z,1008.53
2022-08-16T19:16:02.389Z,1008.53
2022-08-16T19:18:02.213Z,1008.56
2022-08-16T19:20:10.764Z,1008.56
2022-08-16T19:22:01.573Z,1008.62
2022-08-16T19:24:03.743Z,1008.62
2022-08-16T19:26:01.600Z,1008.7
2022-08-16T19:28:07.071Z,1008.7
2022-08-16T19:30:02.365Z,1008.77
2022-08-16T19:32:01.892Z,1008.77
2022-08-16T19:34:01.738Z,1008.9
2022-08-16T19:36:02.596Z,1008.9
2022-08-16T19:38:01.992Z,1008.88
2022-08-16T19:40:02.690Z,1008.97
2022-08-16T19:42:01.860Z,1008.97
2022-08-16T19:44:01.658Z,1009
2022-08-16T19:46:02.191Z,1009
2022-08-16T19:48:02.397Z,1009.11
2022-08-16T19:50:02.497Z,1009.11
2022-08-16T19:52:01.598Z,1009.19
2022-08-16T19:54:01.747Z,1009.19
2022-08-16T19:56:01.662Z,1009.21
2022-08-16T19:58:01.949Z,1009.21
2022-08-16T20:00:11.738Z,1009.13
2022-08-16T20:02:02.068Z,1009.13
2022-08-16T20:04:02.319Z,1009.1
2022-08-16T20:06:01.737Z,1009.1
2022-08-16T20:08:04.930Z,1009.18
2022-08-16T20:10:02.254Z,1009.18
2022-08-16T20:12:01.854Z,1009.17
2022-08-16T20:14:02.301Z,1009.17
2022-08-16T20:16:01.696Z,1009.24
2022-08-16T20:18:24.434Z,1009.24
2022-08-16T20:20:02.470Z,1009.29
2022-08-16T20:22:02.422Z,1009.29
2022-08-16T20:24:35.266Z,1009.47
2022-08-16T20:26:01.836Z,1009.47
2022-08-16T20:28:01.870Z,1009.42
2022-08-16T20:30:05.400Z,1009.42
2022-08-16T20:32:02.206Z,1009.44
2022-08-16T20:34:01.836Z,1009.44
2022-08-16T20:36:01.995Z,1009.37
2022-08-16T20:38:02.321Z,1009.37
2022-08-16T20:40:35.919Z,1009.43
2022-08-16T20:42:01.679Z,1009.43
2022-08-16T20:44:02.153Z,1009.43
2022-08-16T20:46:01.798Z,1009.43
2022-08-16T20:48:02.331Z,1009.4
2022-08-16T20:50:01.988Z,1009.4
2022-08-16T20:52:01.885Z,1009.33
2022-08-16T20:54:02.122Z,1009.33
2022-08-16T20:56:01.794Z,1009.39
2022-08-16T20:58:01.978Z,1009.39
2022-08-16T21:00:05.630Z,1009.48
2022-08-16T21:02:01.650Z,1009.48
2022-08-16T21:04:02.110Z,1009.42
2022-08-16T21:06:02.308Z,1009.42
2022-08-16T21:08:01.671Z,1009.46
2022-08-16T21:10:02.476Z,1009.46
2022-08-16T21:12:02.400Z,1009.54
2022-08-16T21:14:02.127Z,1009.54
2022-08-16T21:16:01.982Z,1009.55
2022-08-16T21:18:02.244Z,1009.55
2022-08-16T21:20:02.023Z,1009.54
2022-08-16T21:22:02.298Z,1009.54
2022-08-16T21:24:02.449Z,1009.56
2022-08-16T21:26:10.949Z,1009.56
2022-08-16T21:28:45.389Z,1009.57
2022-08-16T21:30:02.510Z,1009.57
2022-08-16T21:32:01.769Z,1009.67
2022-08-16T21:34:01.805Z,1009.67
2022-08-16T21:36:01.646Z,1009.58
2022-08-16T21:38:30.980Z,1009.58
2022-08-16T21:40:02.235Z,1009.63
2022-08-16T21:42:01.717Z,1009.63
2022-08-16T21:44:02.145Z,1009.65
2022-08-16T21:46:02.110Z,1009.65
2022-08-16T21:48:01.645Z,1009.67
2022-08-16T21:50:01.845Z,1009.67
2022-08-16T21:52:02.281Z,1009.66
2022-08-16T21:54:02.007Z,1009.66
2022-08-16T21:56:01.961Z,1009.66
2022-08-16T21:58:02.417Z,1009.66
2022-08-16T22:00:09.993Z,1009.7
2022-08-16T22:02:02.268Z,1009.7
2022-08-16T22:04:39.182Z,1009.6
2022-08-16T22:06:14.834Z,1009.6
2022-08-16T22:08:02.255Z,1009.48
2022-08-16T22:11:09.434Z,1009.48
2022-08-16T22:12:01.869Z,1009.49
2022-08-16T22:14:01.983Z,1009.49
2022-08-16T22:16:02.527Z,1009.43
2022-08-16T22:18:01.748Z,1009.43
2022-08-16T22:20:02.122Z,1009.49
2022-08-16T22:22:02.094Z,1009.49
2022-08-16T22:24:01.573Z,1009.42
2022-08-16T22:26:01.738Z,1009.42
2022-08-16T22:28:01.741Z,1009.37
2022-08-16T22:30:02.403Z,1009.37
2022-08-16T22:32:01.770Z,1009.25
2022-08-16T22:34:02.643Z,1009.25
2022-08-16T22:36:02.469Z,1009.49
2022-08-16T22:38:57.749Z,1009.49
2022-08-16T22:40:02.200Z,1009.43
2022-08-16T22:42:02.112Z,1009.43
2022-08-16T22:44:01.672Z,1009.48
2022-08-16T22:46:02.035Z,1009.48
2022-08-16T22:48:02.183Z,1009.41
2022-08-16T22:50:02.597Z,1009.41
2022-08-16T22:52:02.057Z,1009.39
2022-08-16T22:54:49.275Z,1009.39
2022-08-16T22:56:01.926Z,1009.37
2022-08-16T22:58:02.101Z,1009.37
2022-08-16T23:00:08.103Z,1009.35
2022-08-16T23:02:02.324Z,1009.36
2022-08-16T23:04:02.060Z,1009.36
2022-08-16T23:06:02.121Z,1009.48
2022-08-16T23:08:02.034Z,1009.48
2022-08-16T23:10:02.323Z,1009.32
2022-08-16T23:12:02.550Z,1009.32
2022-08-16T23:14:02.506Z,1009.28
2022-08-16T23:16:02.359Z,1009.28
2022-08-16T23:18:02.396Z,1009.3
2022-08-16T23:20:02.094Z,1009.3
2022-08-16T23:22:04.320Z,1009.33
2022-08-16T23:24:02.459Z,1009.33
2022-08-16T23:26:02.666Z,1009.2
2022-08-16T23:28:02.252Z,1009.2
2022-08-16T23:30:02.629Z,1009.28
2022-08-16T23:32:02.206Z,1009.28
2022-08-16T23:34:02.466Z,1009.18
2022-08-16T23:36:02.418Z,1009.18
2022-08-16T23:38:01.603Z,1009.25
2022-08-16T23:40:02.449Z,1009.25
2022-08-16T23:42:01.661Z,1009.25
2022-08-16T23:44:57.794Z,1009.25
2022-08-16T23:46:01.757Z,1009.2
2022-08-16T23:48:02.461Z,1009.2
2022-08-16T23:50:04.652Z,1009.05
2022-08-16T23:52:02.458Z,1009.05
2022-08-16T23:54:02.367Z,1009.12
2022-08-16T23:56:02.382Z,1009.12
2022-08-16T23:58:01.821Z,1009.16
